Elk City, Idaho
Current Conditions -  °F | °C
As of 9:55 AM on Sunday 21 Dec 2014 (Local Time) from KGIC Reporting Station
Broken Clouds Broken Clouds  
Wind Chill:   Ceiling: 6000
Heat Index:   Visibility: 10mi
Dew Point:   Wind: 20mph
Humidity: 71%   Direction: 240°WSW
Pressure: 29.84"   Gusts: 26mph
Location:  45.83°N, 115.44°W
Report Text: KGIC 211755Z AUTO 24017G23KT 10SM SCT036 SCT047 BKN060 07/02 A2984 RMK AO1 60007 T00700021 10155 21099
Loading
Personal Weather Stations






























Interactive Weather Map New forecast layout! Learn more

10-Day Weather Forecast

Advertisements
Track Severe Weather on mobile